Time;durP1;ratioP1;P1;durP2;ratioP2;P2;SDS_P1;SDS_P2;PMS_P1;PMS_P2;Temp;Humidity;BMP_temperature;BMP_pressure;BME280_temperature;BME280_humidity;BME280_pressure;Samples;Min_cycle;Max_cycle;Signal;HPM_P1;HPM_P2
2021/11/24 00:00:16;;;;;;;85.23;17.53;;;;;;;-145.18;100.00;60484.78;5058914;28;20285;-73
2021/11/24 00:02:42;;;;;;;92.93;18.17;;;;;;;-145.18;100.00;60484.78;5058720;28;20468;-73
2021/11/24 00:05:08;;;;;;;85.83;17.13;;;;;;;-145.18;100.00;60484.78;5058538;28;20108;-73
2021/11/24 00:07:33;;;;;;;81.53;16.47;;;;;;;-145.18;100.00;60484.78;5056880;28;20029;-72
2021/11/24 00:09:59;;;;;;;84.53;16.87;;;;;;;-145.18;100.00;60484.78;5055701;28;20505;-73
2021/11/24 00:12:24;;;;;;;77.93;16.00;;;;;;;-145.18;100.00;60484.78;5050313;28;20067;-74
2021/11/24 00:14:49;;;;;;;79.90;16.87;;;;;;;-145.18;100.00;60484.78;5051785;28;20474;-74
2021/11/24 00:17:16;;;;;;;101.53;17.53;;;;;;;-145.18;100.00;60484.78;5045822;28;20021;-73
2021/11/24 00:19:43;;;;;;;88.17;16.50;;;;;;;-145.18;100.00;60484.78;5050771;28;20028;-73
2021/11/24 00:22:08;;;;;;;82.90;16.90;;;;;;;-145.18;100.00;60484.78;5057719;28;20040;-73
2021/11/24 00:24:33;;;;;;;91.50;17.03;;;;;;;-145.18;100.00;60484.78;5057954;28;20020;-74
2021/11/24 00:26:59;;;;;;;80.93;15.90;;;;;;;-145.18;100.00;60484.78;5059970;28;20028;-73
2021/11/24 00:29:24;;;;;;;85.13;16.30;;;;;;;-145.18;100.00;60484.78;5058495;28;20412;-74
2021/11/24 00:31:50;;;;;;;72.40;16.30;;;;;;;-145.18;100.00;60484.78;5050001;28;20026;-73
2021/11/24 00:34:15;;;;;;;93.40;16.97;;;;;;;-145.18;100.00;60484.78;5047864;28;20032;-74
2021/11/24 00:36:41;;;;;;;80.13;16.83;;;;;;;-145.18;100.00;60484.78;5049319;28;20522;-74
2021/11/24 00:39:06;;;;;;;84.93;16.00;;;;;;;-145.18;100.00;60484.78;5049184;28;20447;-74
2021/11/24 00:41:32;;;;;;;82.73;16.77;;;;;;;-145.18;100.00;60484.78;5050460;28;20017;-73
2021/11/24 00:43:57;;;;;;;89.40;16.70;;;;;;;-145.18;100.00;60484.78;5048763;28;20628;-72
2021/11/24 00:46:24;;;;;;;80.77;17.70;;;;;;;-145.18;100.00;60484.78;5048038;28;20032;-74
2021/11/24 00:48:49;;;;;;;90.97;17.20;;;;;;;-145.18;100.00;60484.78;5056585;28;20222;-73
2021/11/24 00:51:14;;;;;;;68.30;15.63;;;;;;;-145.18;100.00;60484.78;5047379;28;20098;-73
2021/11/24 00:53:40;;;;;;;74.40;16.47;;;;;;;-145.18;100.00;60484.78;5048951;28;20035;-73
2021/11/24 00:56:05;;;;;;;76.03;16.37;;;;;;;-145.18;100.00;60484.78;5052078;28;20299;-74
2021/11/24 00:58:31;;;;;;;73.30;16.10;;;;;;;-145.18;100.00;60484.78;5053579;28;20016;-73
2021/11/24 01:00:56;;;;;;;84.13;14.93;;;;;;;-145.18;100.00;60484.78;5055201;28;20169;-73
2021/11/24 01:03:22;;;;;;;80.77;14.83;;;;;;;-145.18;100.00;60484.78;5045973;28;20409;-74
2021/11/24 01:05:47;;;;;;;79.27;16.23;;;;;;;-145.18;100.00;60484.78;5051161;28;20415;-74
2021/11/24 01:08:14;;;;;;;84.57;15.90;;;;;;;-145.18;100.00;60484.78;5052490;28;20039;-73
2021/11/24 01:10:40;;;;;;;79.70;14.90;;;;;;;-145.18;100.00;60484.78;5045684;28;20105;-74
2021/11/24 01:13:06;;;;;;;79.03;15.13;;;;;;;-145.18;100.00;60484.78;5045446;28;20033;-73
2021/11/24 01:15:31;;;;;;;83.27;15.80;;;;;;;-145.18;100.00;60484.78;5047413;28;20024;-73
2021/11/24 01:17:57;;;;;;;78.30;15.03;;;;;;;-145.18;100.00;60484.78;5049495;28;20274;-73
2021/11/24 01:20:22;;;;;;;84.20;16.10;;;;;;;-145.18;100.00;60484.78;5052394;28;20029;-73
2021/11/24 01:22:48;;;;;;;76.33;15.07;;;;;;;-145.18;100.00;60484.78;5054858;28;20119;-73
2021/11/24 01:25:14;;;;;;;82.97;15.33;;;;;;;-145.18;100.00;60484.78;5055612;28;20093;-73
2021/11/24 01:27:41;;;;;;;79.83;14.73;;;;;;;-145.18;100.00;60484.78;5056447;28;20028;-73
2021/11/24 01:30:09;;;;;;;77.13;14.93;;;;;;;-145.18;100.00;60484.78;5049459;28;20062;-74
2021/11/24 01:32:35;;;;;;;87.23;15.40;;;;;;;-145.18;100.00;60484.78;5051676;28;20028;-73
2021/11/24 01:35:00;;;;;;;87.23;15.93;;;;;;;-145.18;100.00;60484.78;5050245;28;20391;-73
2021/11/24 01:37:26;;;;;;;80.60;15.93;;;;;;;-145.18;100.00;60484.78;5052797;28;20107;-73
2021/11/24 01:39:51;;;;;;;86.33;16.00;;;;;;;-145.18;100.00;60484.78;5058202;28;20032;-73
2021/11/24 01:42:17;;;;;;;98.50;16.40;;;;;;;-145.18;100.00;60484.78;5050697;28;20024;-73
2021/11/24 01:44:43;;;;;;;99.70;16.07;;;;;;;-145.18;100.00;60484.78;5056565;28;20060;-73
2021/11/24 01:47:08;;;;;;;133.50;17.13;;;;;;;-145.18;100.00;60484.78;5058268;28;20219;-73
2021/11/24 01:49:34;;;;;;;106.90;15.20;;;;;;;-145.18;100.00;60484.78;5054036;28;20024;-73
2021/11/24 01:52:01;;;;;;;109.77;16.37;;;;;;;-145.18;100.00;60484.78;5053280;28;20188;-73
2021/11/24 01:54:28;;;;;;;98.23;14.77;;;;;;;-145.18;100.00;60484.78;5051376;28;20120;-72
2021/11/24 01:56:54;;;;;;;128.70;17.33;;;;;;;-145.18;100.00;60484.78;5048395;28;20044;-72
2021/11/24 01:59:19;;;;;;;117.50;17.40;;;;;;;-145.18;100.00;60484.78;5056205;28;20495;-73
2021/11/24 02:01:46;;;;;;;129.43;17.63;;;;;;;-145.18;100.00;60484.78;5054739;28;20016;-73
2021/11/24 02:04:13;;;;;;;104.60;17.13;;;;;;;-145.18;100.00;60484.78;5055966;28;20074;-73
2021/11/24 02:06:39;;;;;;;133.77;17.57;;;;;;;-145.18;100.00;60484.78;5053525;28;20023;-73
2021/11/24 02:09:06;;;;;;;133.03;17.50;;;;;;;-145.18;100.00;60484.78;5048920;28;20205;-73
2021/11/24 02:11:36;;;;;;;124.23;17.03;;;;;;;-145.18;100.00;60484.78;5045814;28;20373;-74
2021/11/24 02:14:01;;;;;;;122.87;16.27;;;;;;;-145.18;100.00;60484.78;5057370;28;20036;-72
2021/11/24 02:16:27;;;;;;;102.77;15.53;;;;;;;-145.18;100.00;60484.78;5055335;28;20396;-73
2021/11/24 02:18:52;;;;;;;101.97;16.20;;;;;;;-145.18;100.00;60484.78;5051037;28;20250;-73
2021/11/24 02:21:19;;;;;;;125.33;17.13;;;;;;;-145.18;100.00;60484.78;5053944;28;20665;-73
2021/11/24 02:23:45;;;;;;;102.00;17.23;;;;;;;-145.18;100.00;60484.78;5057956;28;20548;-73
2021/11/24 02:26:10;;;;;;;116.10;16.57;;;;;;;-145.18;100.00;60484.78;5053923;28;20028;-73
2021/11/24 02:28:35;;;;;;;104.90;16.63;;;;;;;-145.18;100.00;60484.78;5054710;28;20079;-73
2021/11/24 02:31:01;;;;;;;117.57;16.53;;;;;;;-145.18;100.00;60484.78;5051938;28;20038;-73
2021/11/24 02:33:28;;;;;;;107.63;17.50;;;;;;;-145.18;100.00;60484.78;5050879;28;20021;-72
2021/11/24 02:35:54;;;;;;;108.77;17.63;;;;;;;-145.18;100.00;60484.78;5054000;28;20420;-73
2021/11/24 02:38:19;;;;;;;109.37;16.80;;;;;;;-145.18;100.00;60484.78;5049062;28;20021;-72
2021/11/24 02:40:44;;;;;;;123.93;17.40;;;;;;;-145.18;100.00;60484.78;5055360;28;20108;-73
2021/11/24 02:43:10;;;;;;;119.03;17.00;;;;;;;-145.18;100.00;60484.78;5056944;28;20051;-73
2021/11/24 02:45:36;;;;;;;111.03;18.33;;;;;;;-145.18;100.00;60484.78;5059434;28;20087;-73
2021/11/24 02:48:04;;;;;;;121.00;18.00;;;;;;;-145.18;100.00;60484.78;5054272;28;20036;-73
2021/11/24 02:50:30;;;;;;;107.30;17.47;;;;;;;-145.18;100.00;60484.78;5051279;28;20024;-73
2021/11/24 02:52:55;;;;;;;110.17;17.90;;;;;;;-145.18;100.00;60484.78;5055847;28;20173;-73
2021/11/24 02:55:21;;;;;;;87.73;16.67;;;;;;;-145.18;100.00;60484.78;5057579;28;20062;-73
2021/11/24 02:57:49;;;;;;;85.47;16.17;;;;;;;-145.18;100.00;60484.78;5052456;28;20035;-73
2021/11/24 03:00:24;;;;;;;94.20;17.37;;;;;;;-145.18;100.00;60484.78;5054735;28;20376;-73
2021/11/24 03:02:50;;;;;;;104.13;17.57;;;;;;;-145.18;100.00;60484.78;5048881;28;20017;-73
2021/11/24 03:05:19;;;;;;;100.27;18.10;;;;;;;-145.18;100.00;60484.78;5042119;28;20021;-72
2021/11/24 03:07:44;;;;;;;84.83;16.93;;;;;;;-145.18;100.00;60484.78;5055821;28;20028;-73
2021/11/24 03:10:10;;;;;;;81.23;16.37;;;;;;;-145.18;100.00;60484.78;5057495;28;20044;-73
2021/11/24 03:12:36;;;;;;;81.57;16.87;;;;;;;-145.18;100.00;60484.78;5057203;28;20375;-73
2021/11/24 03:15:04;;;;;;;80.87;16.13;;;;;;;-145.18;100.00;60484.78;5054592;28;20028;-72
2021/11/24 03:17:30;;;;;;;83.40;16.97;;;;;;;-145.18;100.00;60484.78;5050849;28;20029;-73
2021/11/24 03:19:57;;;;;;;77.97;15.90;;;;;;;-145.18;100.00;60484.78;5048361;28;20047;-73
2021/11/24 03:22:23;;;;;;;81.43;15.53;;;;;;;-145.18;100.00;60484.78;5048928;28;20416;-72
2021/11/24 03:24:55;;;;;;;83.03;16.57;;;;;;;-145.18;100.00;60484.78;5045803;28;20186;-73
2021/11/24 03:27:31;;;;;;;88.68;15.45;;;;;;;-145.18;100.00;60484.78;5047211;28;20274;-73
2021/11/24 03:29:59;;;;;;;86.27;16.13;;;;;;;-145.18;100.00;60484.78;5056061;28;20040;-73
2021/11/24 03:32:25;;;;;;;94.83;15.90;;;;;;;-145.18;100.00;60484.78;5055991;28;20071;-72
2021/11/24 03:34:51;;;;;;;84.33;16.03;;;;;;;-145.18;100.00;60484.78;5047558;28;20082;-72
2021/11/24 03:37:19;;;;;;;81.73;15.70;;;;;;;-145.18;100.00;60484.78;5049327;28;20595;-72
2021/11/24 03:39:46;;;;;;;91.07;16.30;;;;;;;-145.18;100.00;60484.78;5045571;28;20253;-72
2021/11/24 03:42:12;;;;;;;87.03;15.53;;;;;;;-145.18;100.00;60484.78;5052613;28;20166;-73
2021/11/24 03:44:37;;;;;;;93.40;16.30;;;;;;;-145.18;100.00;60484.78;5051829;28;20020;-72
2021/11/24 03:47:03;;;;;;;81.67;15.90;;;;;;;-145.18;100.00;60484.78;5057006;28;20028;-73
2021/11/24 03:49:28;;;;;;;80.97;17.40;;;;;;;-145.18;100.00;60484.78;5043254;28;20020;-73
2021/11/24 03:51:54;;;;;;;90.23;16.07;;;;;;;-145.18;100.00;60484.78;5052236;28;20082;-73
2021/11/24 03:54:19;;;;;;;85.37;17.37;;;;;;;-145.18;100.00;60484.78;5051569;28;20100;-73
2021/11/24 03:56:45;;;;;;;82.67;16.03;;;;;;;-145.18;100.00;60484.78;5046284;28;20029;-73
2021/11/24 03:59:10;;;;;;;81.57;15.53;;;;;;;-145.18;100.00;60484.78;5047263;28;20283;-73
2021/11/24 04:01:35;;;;;;;92.47;16.37;;;;;;;-145.18;100.00;60484.78;5044651;28;20293;-73
2021/11/24 04:04:01;;;;;;;92.27;17.13;;;;;;;-145.18;100.00;60484.78;5046391;28;20646;-73
2021/11/24 04:06:29;;;;;;;79.63;16.13;;;;;;;-145.18;100.00;60484.78;5055760;28;20617;-73
2021/11/24 04:08:55;;;;;;;82.50;16.50;;;;;;;-145.18;100.00;60484.78;5048619;28;20245;-73
2021/11/24 04:11:20;;;;;;;85.33;16.33;;;;;;;-145.18;100.00;60484.78;5052119;28;20116;-72
2021/11/24 04:13:45;;;;;;;69.93;15.27;;;;;;;-145.18;100.00;60484.78;5055311;28;20125;-73
2021/11/24 04:16:11;;;;;;;80.80;14.97;;;;;;;-145.18;100.00;60484.78;5051507;28;20031;-73
2021/11/24 04:18:36;;;;;;;77.93;15.53;;;;;;;-145.18;100.00;60484.78;5047742;28;20407;-73
2021/11/24 04:21:02;;;;;;;74.50;15.03;;;;;;;-145.18;100.00;60484.78;5056069;28;20260;-73
2021/11/24 04:23:27;;;;;;;83.13;15.10;;;;;;;-145.18;100.00;60484.78;5043994;28;20023;-72
2021/11/24 04:25:53;;;;;;;74.87;15.00;;;;;;;-145.18;100.00;60484.78;5049250;28;20393;-72
2021/11/24 04:28:19;;;;;;;74.27;16.47;;;;;;;-145.18;100.00;60484.78;5051844;28;20016;-72
2021/11/24 04:30:45;;;;;;;76.53;15.90;;;;;;;-145.18;100.00;60484.78;5055496;28;20032;-73
2021/11/24 04:33:10;;;;;;;68.07;14.30;;;;;;;-145.18;100.00;60484.78;5048147;28;20108;-73
2021/11/24 04:35:36;;;;;;;72.13;14.53;;;;;;;-145.18;100.00;60484.78;5047412;28;20055;-72
2021/11/24 04:38:02;;;;;;;53.80;13.43;;;;;;;-145.18;100.00;60484.78;5055745;28;20032;-72
2021/11/24 04:40:27;;;;;;;60.07;13.30;;;;;;;-145.18;100.00;60484.78;5051607;28;20032;-72
2021/11/24 04:42:54;;;;;;;56.43;12.53;;;;;;;-145.18;100.00;60484.78;5045610;28;20043;-72
2021/11/24 04:45:21;;;;;;;54.47;13.37;;;;;;;-145.18;100.00;60484.78;5053005;28;20333;-73
2021/11/24 04:47:46;;;;;;;53.13;12.90;;;;;;;-145.18;100.00;60484.78;5049441;28;20103;-73
2021/11/24 04:50:13;;;;;;;54.23;12.90;;;;;;;-145.18;100.00;60484.78;5045878;28;20104;-73
2021/11/24 04:52:39;;;;;;;52.17;12.00;;;;;;;-145.18;100.00;60484.78;5052031;28;20040;-73
2021/11/24 04:55:05;;;;;;;48.77;11.33;;;;;;;-145.18;100.00;60484.78;5056838;28;20388;-72
2021/11/24 04:57:31;;;;;;;52.90;11.60;;;;;;;-145.18;100.00;60484.78;5059820;28;20024;-72
2021/11/24 04:59:56;;;;;;;49.40;11.90;;;;;;;-145.18;100.00;60484.78;5053266;28;20478;-73
2021/11/24 05:02:22;;;;;;;39.40;10.63;;;;;;;-145.18;100.00;60484.78;5047451;28;20020;-72
2021/11/24 05:04:47;;;;;;;50.60;10.77;;;;;;;-145.18;100.00;60484.78;5054825;28;20040;-73
2021/11/24 05:07:13;;;;;;;50.47;11.50;;;;;;;-145.18;100.00;60484.78;5053896;28;20108;-73
2021/11/24 05:09:38;;;;;;;49.50;11.10;;;;;;;-145.18;100.00;60484.78;5052576;28;20374;-73
2021/11/24 05:12:04;;;;;;;55.17;11.93;;;;;;;-145.18;100.00;60484.78;5051011;28;20031;-72
2021/11/24 05:14:34;;;;;;;50.23;12.20;;;;;;;-145.18;100.00;60484.78;5051557;28;20031;-73
2021/11/24 05:17:05;;;;;;;50.17;11.40;;;;;;;-145.18;100.00;60484.78;5051862;28;20033;-73
2021/11/24 05:19:33;;;;;;;46.03;10.73;;;;;;;-145.18;100.00;60484.78;5048354;28;20108;-72
2021/11/24 05:21:59;;;;;;;44.10;10.37;;;;;;;-145.18;100.00;60484.78;5056284;28;20095;-72
2021/11/24 05:24:24;;;;;;;42.67;10.80;;;;;;;-145.18;100.00;60484.78;5048844;28;20100;-73
2021/11/24 05:26:50;;;;;;;43.73;11.00;;;;;;;-145.18;100.00;60484.78;5058482;28;20186;-72
2021/11/24 05:29:15;;;;;;;50.20;10.03;;;;;;;-145.18;100.00;60484.78;5056201;28;20388;-72
2021/11/24 05:31:41;;;;;;;50.67;10.43;;;;;;;-145.18;100.00;60484.78;5052570;28;20165;-73
2021/11/24 05:34:07;;;;;;;48.80;11.03;;;;;;;-145.18;100.00;60484.78;5052304;28;20028;-73
2021/11/24 05:36:34;;;;;;;45.03;9.87;;;;;;;-145.18;100.00;60484.78;5054214;28;20025;-73
2021/11/24 05:39:00;;;;;;;39.53;9.63;;;;;;;-145.18;100.00;60484.78;5052476;28;20400;-73
2021/11/24 05:41:26;;;;;;;44.43;9.50;;;;;;;-145.18;100.00;60484.78;5054470;28;20041;-73
2021/11/24 05:43:56;;;;;;;44.40;10.00;;;;;;;-145.18;100.00;60484.78;5049611;28;20400;-73
2021/11/24 05:46:39;;;;;;;36.77;9.00;;;;;;;-145.18;100.00;60484.78;5054362;28;20485;-73
2021/11/24 05:49:05;;;;;;;37.73;9.47;;;;;;;-145.18;100.00;60484.78;5051503;28;20036;-73
2021/11/24 05:51:30;;;;;;;37.83;9.87;;;;;;;-145.18;100.00;60484.78;5053897;28;20028;-73
2021/11/24 05:53:56;;;;;;;42.43;8.87;;;;;;;-145.18;100.00;60484.78;5047002;28;20660;-72
2021/11/24 05:56:22;;;;;;;37.77;8.80;;;;;;;-145.18;100.00;60484.78;5053914;28;20074;-72
2021/11/24 05:58:47;;;;;;;38.50;8.90;;;;;;;-145.18;100.00;60484.78;5049152;28;20436;-71
2021/11/24 06:01:12;;;;;;;34.93;8.87;;;;;;;-145.18;100.00;60484.78;5056961;28;20396;-72
2021/11/24 06:03:38;;;;;;;44.23;9.20;;;;;;;-145.18;100.00;60484.78;5045495;28;20308;-72
2021/11/24 06:06:03;;;;;;;47.87;9.30;;;;;;;-145.18;100.00;60484.78;5055428;28;20324;-72
2021/11/24 06:08:29;;;;;;;44.23;9.47;;;;;;;-145.18;100.00;60484.78;5045227;28;20028;-72
2021/11/24 06:10:54;;;;;;;42.10;7.90;;;;;;;-145.18;100.00;60484.78;5050809;28;20052;-72
2021/11/24 06:13:19;;;;;;;42.43;8.43;;;;;;;-145.18;100.00;60484.78;5052809;28;20025;-72
2021/11/24 06:15:45;;;;;;;32.63;7.83;;;;;;;-145.18;100.00;60484.78;5048385;28;20082;-72
2021/11/24 06:18:11;;;;;;;29.73;8.00;;;;;;;-145.18;100.00;60484.78;5047486;28;20044;-72
2021/11/24 06:20:38;;;;;;;26.40;6.80;;;;;;;-145.18;100.00;60484.78;5048274;28;20411;-72
2021/11/24 06:23:03;;;;;;;30.50;7.30;;;;;;;-145.18;100.00;60484.78;5052675;28;20586;-71
2021/11/24 06:25:29;;;;;;;29.13;7.37;;;;;;;-145.18;100.00;60484.78;5048033;28;20024;-72
2021/11/24 06:27:54;;;;;;;26.77;6.67;;;;;;;-145.18;100.00;60484.78;5053173;28;20082;-73
2021/11/24 06:30:20;;;;;;;28.60;6.80;;;;;;;-145.18;100.00;60484.78;5057937;28;20431;-73
2021/11/24 06:32:47;;;;;;;29.47;7.00;;;;;;;-145.18;100.00;60484.78;5055295;28;20028;-73
2021/11/24 06:35:13;;;;;;;25.40;7.43;;;;;;;-145.18;100.00;60484.78;5057463;28;20020;-73
2021/11/24 06:37:38;;;;;;;32.13;7.13;;;;;;;-145.18;100.00;60484.78;5057489;28;20032;-73
2021/11/24 06:40:05;;;;;;;32.27;6.53;;;;;;;-145.18;100.00;60484.78;5051484;28;20419;-73
2021/11/24 06:42:31;;;;;;;35.73;7.70;;;;;;;-145.18;100.00;60484.78;5051508;28;20094;-73
2021/11/24 06:44:56;;;;;;;36.97;7.77;;;;;;;-145.18;100.00;60484.78;5050495;28;20465;-72
2021/11/24 06:47:21;;;;;;;44.80;9.30;;;;;;;-145.18;100.00;60484.78;5056736;28;20466;-73
2021/11/24 06:49:47;;;;;;;47.77;10.07;;;;;;;-145.18;100.00;60484.78;5053201;28;20261;-73
2021/11/24 06:52:13;;;;;;;50.57;10.00;;;;;;;-145.18;100.00;60484.78;5051525;28;20627;-73
2021/11/24 06:54:39;;;;;;;57.70;10.67;;;;;;;-145.18;100.00;60484.78;5055002;28;20127;-73
2021/11/24 06:57:05;;;;;;;51.40;10.07;;;;;;;-145.18;100.00;60484.78;5055537;28;20119;-73
2021/11/24 06:59:30;;;;;;;51.10;10.90;;;;;;;-145.18;100.00;60484.78;5050414;28;20127;-73
2021/11/24 07:01:56;;;;;;;52.00;9.93;;;;;;;-145.18;100.00;60484.78;5051559;28;20111;-73
2021/11/24 07:04:21;;;;;;;44.07;8.20;;;;;;;-145.18;100.00;60484.78;5052812;28;20073;-73
2021/11/24 07:06:46;;;;;;;35.87;8.10;;;;;;;-145.18;100.00;60484.78;5057142;28;20064;-73
2021/11/24 07:09:13;;;;;;;44.37;8.80;;;;;;;-145.18;100.00;60484.78;5057226;28;20125;-73
2021/11/24 07:11:40;;;;;;;40.13;8.90;;;;;;;-145.18;100.00;60484.78;5057308;28;20040;-73
2021/11/24 07:14:08;;;;;;;34.90;7.40;;;;;;;-145.18;100.00;60484.78;5052274;28;20086;-73
2021/11/24 07:16:33;;;;;;;39.47;7.37;;;;;;;-145.18;100.00;60484.78;5052092;28;20255;-73
2021/11/24 07:18:59;;;;;;;37.53;7.67;;;;;;;-145.18;100.00;60484.78;5054065;28;20413;-73
2021/11/24 07:21:24;;;;;;;32.63;8.10;;;;;;;-145.18;100.00;60484.78;5050690;28;20242;-72
2021/11/24 07:23:50;;;;;;;31.10;7.90;;;;;;;-145.18;100.00;60484.78;5058907;28;20035;-73
2021/11/24 07:26:15;;;;;;;37.07;7.40;;;;;;;-145.18;100.00;60484.78;5058368;28;20020;-73
2021/11/24 07:28:41;;;;;;;31.63;7.03;;;;;;;-145.18;100.00;60484.78;5057939;28;20036;-73
2021/11/24 07:31:06;;;;;;;28.20;6.33;;;;;;;-145.18;100.00;60484.78;5057365;28;20267;-73
2021/11/24 07:33:32;;;;;;;27.97;6.60;;;;;;;-145.18;100.00;60484.78;5058836;28;20540;-73
2021/11/24 07:35:57;;;;;;;28.70;6.70;;;;;;;-145.18;100.00;60484.78;5053768;28;20532;-73
2021/11/24 07:38:22;;;;;;;37.70;7.03;;;;;;;-145.18;100.00;60484.78;5059078;28;20168;-73
2021/11/24 07:40:48;;;;;;;33.63;6.77;;;;;;;-145.18;100.00;60484.78;5055782;28;20070;-73
2021/11/24 07:43:13;;;;;;;26.97;6.07;;;;;;;-145.18;100.00;60484.78;5055951;28;20228;-73
2021/11/24 07:45:39;;;;;;;31.93;6.77;;;;;;;-145.18;100.00;60484.78;5058076;28;20423;-74
2021/11/24 07:48:04;;;;;;;33.73;7.23;;;;;;;-145.18;100.00;60484.78;5055563;28;20258;-73
2021/11/24 07:50:30;;;;;;;28.37;6.83;;;;;;;-145.18;100.00;60484.78;5055205;28;20067;-73
2021/11/24 07:52:55;;;;;;;33.57;7.00;;;;;;;-145.18;100.00;60484.78;5054061;28;20556;-73
2021/11/24 07:55:22;;;;;;;37.57;7.30;;;;;;;-145.18;100.00;60484.78;5056625;28;20122;-73
2021/11/24 07:57:47;;;;;;;26.77;7.37;;;;;;;-145.18;100.00;60484.78;5049920;28;20109;-73
2021/11/24 08:00:13;;;;;;;30.50;6.77;;;;;;;-145.18;100.00;60484.78;5055900;28;20054;-74
2021/11/24 08:02:40;;;;;;;31.07;7.57;;;;;;;-145.18;100.00;60484.78;5045327;28;20165;-73
2021/11/24 08:05:06;;;;;;;36.93;7.43;;;;;;;-145.18;100.00;60484.78;5051080;28;20116;-72
2021/11/24 08:07:32;;;;;;;36.33;7.60;;;;;;;-145.18;100.00;60484.78;5058134;28;20399;-73
2021/11/24 08:09:58;;;;;;;33.47;8.17;;;;;;;-145.18;100.00;60484.78;5055551;28;20057;-73
2021/11/24 08:12:24;;;;;;;28.00;7.37;;;;;;;-145.18;100.00;60484.78;5052768;28;20024;-73
2021/11/24 08:14:49;;;;;;;33.03;7.57;;;;;;;-145.18;100.00;60484.78;5056333;28;20503;-73
2021/11/24 08:17:15;;;;;;;32.67;7.63;;;;;;;-145.18;100.00;60484.78;5054422;28;20069;-73
2021/11/24 08:19:40;;;;;;;33.90;7.37;;;;;;;-145.18;100.00;60484.78;5058018;28;20021;-73
2021/11/24 08:22:06;;;;;;;44.83;9.17;;;;;;;-145.18;100.00;60484.78;5057660;28;20126;-73
2021/11/24 08:24:31;;;;;;;55.13;10.37;;;;;;;-145.18;100.00;60484.78;5057594;28;20028;-73
2021/11/24 08:26:57;;;;;;;44.10;10.70;;;;;;;-145.18;100.00;60484.78;5056967;28;20248;-73
2021/11/24 08:29:22;;;;;;;45.07;11.07;;;;;;;-145.18;100.00;60484.78;5055715;28;20032;-73
2021/11/24 08:31:47;;;;;;;41.10;9.97;;;;;;;-145.18;100.00;60484.78;5057870;28;20447;-73
2021/11/24 08:34:13;;;;;;;39.70;9.90;;;;;;;-145.18;100.00;60484.78;5057769;28;20028;-73
2021/11/24 08:36:39;;;;;;;35.23;9.57;;;;;;;-145.18;100.00;60484.78;5057705;28;20154;-73
2021/11/24 08:39:08;;;;;;;34.77;9.07;;;;;;;-145.18;100.00;60484.78;5058038;28;20059;-73
2021/11/24 08:41:33;;;;;;;42.23;10.20;;;;;;;-145.18;100.00;60484.78;5058515;28;20400;-73
2021/11/24 08:43:59;;;;;;;39.10;10.13;;;;;;;-145.18;100.00;60484.78;5052523;28;20035;-72
2021/11/24 08:46:25;;;;;;;34.40;10.10;;;;;;;-145.18;100.00;60484.78;5055322;28;20555;-73
2021/11/24 08:48:50;;;;;;;34.50;9.70;;;;;;;-145.18;100.00;60484.78;5057819;28;20028;-73
2021/11/24 08:51:16;;;;;;;36.73;9.47;;;;;;;-145.18;100.00;60484.78;5057393;28;20319;-73
2021/11/24 08:53:42;;;;;;;34.37;9.13;;;;;;;-145.18;100.00;60484.78;5056698;28;20348;-73
2021/11/24 08:56:07;;;;;;;28.37;8.93;;;;;;;-145.18;100.00;60484.78;5054522;28;20104;-73
2021/11/24 08:58:33;;;;;;;25.43;8.87;;;;;;;-145.18;100.00;60484.78;5056475;28;20585;-73
2021/11/24 09:00:59;;;;;;;21.83;7.83;;;;;;;-145.18;100.00;60484.78;5064424;28;20060;-73
2021/11/24 09:03:24;;;;;;;22.93;8.30;;;;;;;-145.18;100.00;60484.78;5045739;28;20034;-73
2021/11/24 09:05:49;;;;;;;23.17;8.23;;;;;;;-145.18;100.00;60484.78;5057706;28;20024;-73
2021/11/24 09:08:15;;;;;;;26.53;7.30;;;;;;;-145.18;100.00;60484.78;5057188;28;20035;-73
2021/11/24 09:10:42;;;;;;;24.03;7.60;;;;;;;-145.18;100.00;60484.78;5053646;28;20106;-73
2021/11/24 09:13:07;;;;;;;26.17;8.67;;;;;;;-145.18;100.00;60484.78;5048765;28;20070;-73
2021/11/24 09:15:33;;;;;;;22.63;7.77;;;;;;;-145.18;100.00;60484.78;5048480;28;20473;-73
2021/11/24 09:17:59;;;;;;;25.57;8.37;;;;;;;-145.18;100.00;60484.78;5049235;28;20059;-73
2021/11/24 09:20:24;;;;;;;21.17;7.57;;;;;;;-145.18;100.00;60484.78;5048762;28;20032;-73
2021/11/24 09:22:50;;;;;;;23.63;6.70;;;;;;;-145.18;100.00;60484.78;5056353;28;20028;-72
2021/11/24 09:25:19;;;;;;;25.37;8.03;;;;;;;-145.18;100.00;60484.78;5053863;28;20416;-72
2021/11/24 09:28:06;;;;;;;24.03;7.30;;;;;;;-145.18;100.00;60484.78;5056033;28;20119;-73
2021/11/24 09:30:32;;;;;;;21.27;7.43;;;;;;;-145.18;100.00;60484.78;5032532;28;20044;-73
2021/11/24 09:32:57;;;;;;;21.60;7.17;;;;;;;-145.18;100.00;60484.78;5041726;28;20428;-72
2021/11/24 09:35:24;;;;;;;23.60;7.07;;;;;;;-145.18;100.00;60484.78;5042708;28;20093;-73
2021/11/24 09:37:49;;;;;;;23.47;7.53;;;;;;;-145.18;100.00;60484.78;5042862;28;20033;-73
2021/11/24 09:40:15;;;;;;;19.63;6.80;;;;;;;-145.18;100.00;60484.78;5042282;28;20029;-72
2021/11/24 09:42:44;;;;;;;21.30;7.43;;;;;;;-145.18;100.00;60484.78;5048199;28;20107;-72
2021/11/24 09:45:10;;;;;;;20.10;6.50;;;;;;;-145.18;100.00;60484.78;5046323;28;20484;-73
2021/11/24 09:47:37;;;;;;;17.47;5.60;;;;;;;-145.18;100.00;60484.78;5047772;28;20537;-73
2021/11/24 09:50:05;;;;;;;18.43;6.10;;;;;;;-145.18;100.00;60484.78;5042986;28;20477;-73
2021/11/24 09:52:34;;;;;;;15.63;5.97;;;;;;;-145.18;100.00;60484.78;5049783;28;20300;-73
2021/11/24 09:55:00;;;;;;;14.10;5.73;;;;;;;-145.18;100.00;60484.78;5054081;28;20436;-73
2021/11/24 09:57:26;;;;;;;14.67;5.67;;;;;;;-145.18;100.00;60484.78;5055379;28;20276;-73
2021/11/24 09:59:53;;;;;;;15.13;5.37;;;;;;;-145.18;100.00;60484.78;5049509;28;20085;-73
2021/11/24 10:02:20;;;;;;;16.07;5.47;;;;;;;-145.18;100.00;60484.78;5053930;28;20496;-73
2021/11/24 10:04:47;;;;;;;16.30;5.63;;;;;;;-145.18;100.00;60484.78;5054091;28;20096;-73
2021/11/24 10:07:16;;;;;;;13.80;5.53;;;;;;;-145.18;100.00;60484.78;5053768;28;20508;-73
2021/11/24 10:09:42;;;;;;;13.93;5.27;;;;;;;-145.18;100.00;60484.78;5050331;28;20045;-73
2021/11/24 10:12:09;;;;;;;15.07;5.13;;;;;;;-145.18;100.00;60484.78;5049443;28;20129;-73
2021/11/24 10:14:36;;;;;;;11.47;5.00;;;;;;;-145.18;100.00;60484.78;5051979;28;20272;-73
2021/11/24 10:17:12;;;;;;;15.90;5.40;;;;;;;-145.18;100.00;60484.78;5051675;28;20243;-73
2021/11/24 10:19:37;;;;;;;13.13;5.27;;;;;;;-145.18;100.00;60484.78;5053761;28;20036;-73
2021/11/24 10:22:06;;;;;;;15.53;5.30;;;;;;;-145.18;100.00;60484.78;5051367;28;20153;-72
2021/11/24 10:24:43;;;;;;;14.60;4.77;;;;;;;-145.18;100.00;60484.78;5049796;28;20444;-73
2021/11/24 10:27:12;;;;;;;13.90;5.13;;;;;;;-145.18;100.00;60484.78;5048192;28;20072;-73
2021/11/24 10:29:40;;;;;;;14.47;4.60;;;;;;;-145.18;100.00;60484.78;5052481;28;20032;-73
2021/11/24 10:32:08;;;;;;;16.33;5.00;;;;;;;-145.18;100.00;60484.78;5054334;28;20971;-73
2021/11/24 10:34:35;;;;;;;11.47;4.70;;;;;;;-145.18;100.00;60484.78;5053019;28;20037;-73
2021/11/24 10:37:06;;;;;;;14.33;5.13;;;;;;;-145.18;100.00;60484.78;5053997;28;20039;-73
2021/11/24 10:39:41;;;;;;;10.93;3.97;;;;;;;-145.18;100.00;60484.78;5048120;28;20050;-73
2021/11/24 10:42:11;;;;;;;10.57;4.20;;;;;;;-145.18;100.00;60484.78;5052164;28;20141;-73
2021/11/24 10:44:38;;;;;;;14.37;4.80;;;;;;;-145.18;100.00;60484.78;5049859;28;20031;-72
2021/11/24 10:47:07;;;;;;;13.87;4.83;;;;;;;-145.18;100.00;60484.78;5053440;28;20576;-72
2021/11/24 10:49:54;;;;;;;10.23;3.60;;;;;;;-145.18;100.00;60484.78;5052391;28;20556;-72
2021/11/24 10:52:24;;;;;;;9.87;4.10;;;;;;;-145.18;100.00;60484.78;5052155;28;20036;-72